createdAt,value
2023-03-22T00:01:58.748Z,93.81
2023-03-22T00:07:06.246Z,93.84
2023-03-22T00:12:10.374Z,94.02
2023-03-22T00:17:14.244Z,94.01
2023-03-22T00:22:25.689Z,93.87
2023-03-22T00:27:36.682Z,93.61
2023-03-22T00:32:38.829Z,93.28
2023-03-22T00:37:41.490Z,93.45
2023-03-22T00:42:52.419Z,93.59
2023-03-22T00:48:02.504Z,93.68
2023-03-22T00:53:07.112Z,93.72
2023-03-22T00:58:32.763Z,93.75
2023-03-22T01:03:41.947Z,93.78
2023-03-22T01:08:45.064Z,93.73
2023-03-22T01:13:48.035Z,93.70
2023-03-22T01:18:51.747Z,93.77
2023-03-22T01:23:53.837Z,93.77
2023-03-22T01:28:56.441Z,93.74
2023-03-22T01:33:58.566Z,93.78
2023-03-22T01:39:03.789Z,93.79
2023-03-22T01:44:12.696Z,93.80
2023-03-22T01:49:32.416Z,93.80
2023-03-22T01:54:45.968Z,93.83
2023-03-22T02:00:34.054Z,93.84
2023-03-22T02:05:47.843Z,93.80
2023-03-22T02:10:56.991Z,93.82
2023-03-22T02:16:49.716Z,93.91
2023-03-22T02:22:16.538Z,94.04
2023-03-22T02:28:02.927Z,94.08
2023-03-22T02:33:32.002Z,94.11
2023-03-22T02:39:05.359Z,94.06
2023-03-22T02:44:43.395Z,94.04
2023-03-22T02:49:57.004Z,93.91
2023-03-22T02:55:21.094Z,93.88
2023-03-22T03:00:30.590Z,94.04
2023-03-22T03:05:36.298Z,94.14
2023-03-22T03:10:52.799Z,94.24
2023-03-22T03:15:59.730Z,94.34
2023-03-22T03:21:36.622Z,94.44
2023-03-22T03:27:03.380Z,94.55
2023-03-22T03:32:32.738Z,94.67
2023-03-22T03:37:47.207Z,94.75
2023-03-22T03:42:53.244Z,94.59
2023-03-22T03:48:04.263Z,94.49
2023-03-22T03:53:13.952Z,94.49
2023-03-22T03:58:16.833Z,94.49
2023-03-22T04:03:19.545Z,94.47
2023-03-22T04:08:45.896Z,94.29
2023-03-22T04:13:52.642Z,94.32
2023-03-22T04:18:56.972Z,94.23
2023-03-22T04:23:59.561Z,93.79
2023-03-22T04:29:26.310Z,93.49
2023-03-22T04:34:36.104Z,93.39
2023-03-22T04:39:40.609Z,93.61
2023-03-22T04:45:05.354Z,93.72
2023-03-22T04:50:09.692Z,93.67
2023-03-22T04:55:38.936Z,93.80
2023-03-22T05:00:44.093Z,93.99
2023-03-22T05:05:53.437Z,93.79
2023-03-22T05:11:01.830Z,93.43
2023-03-22T05:16:06.167Z,93.88
2023-03-22T05:21:35.493Z,94.16
2023-03-22T05:27:06.289Z,94.37
2023-03-22T05:32:16.102Z,94.42
2023-03-22T05:37:21.211Z,94.51
2023-03-22T05:42:32.764Z,94.63
2023-03-22T05:47:36.203Z,94.75
2023-03-22T05:52:46.654Z,94.85
2023-03-22T05:58:05.196Z,94.92
2023-03-22T06:03:18.514Z,94.97
2023-03-22T06:08:27.307Z,95.02
2023-03-22T06:13:30.042Z,95.04
2023-03-22T06:18:33.378Z,95.00
2023-03-22T06:23:44.031Z,95.00
2023-03-22T06:28:49.093Z,94.97
2023-03-22T06:34:14.440Z,94.95
2023-03-22T06:39:36.436Z,94.96
2023-03-22T06:44:46.286Z,94.96
2023-03-22T06:50:03.170Z,95.05
2023-03-22T06:55:29.965Z,95.18
2023-03-22T07:00:34.254Z,95.25
2023-03-22T07:05:36.651Z,95.29
2023-03-22T07:10:40.121Z,95.30
2023-03-22T07:15:56.542Z,95.40
2023-03-22T07:21:15.449Z,95.49
2023-03-22T07:26:18.763Z,95.55
2023-03-22T07:31:23.779Z,95.57
2023-03-22T07:36:38.896Z,95.50
2023-03-22T07:41:43.477Z,95.41
2023-03-22T07:47:15.575Z,95.24
2023-03-22T07:52:37.325Z,95.13
2023-03-22T07:57:39.855Z,95.11
2023-03-22T08:02:46.028Z,95.14
2023-03-22T08:08:09.875Z,95.18
2023-03-22T08:13:12.492Z,93.09
2023-03-22T08:18:15.564Z,89.60
2023-03-22T08:23:22.609Z,85.03
2023-03-22T08:28:47.318Z,84.77
2023-03-22T08:33:50.358Z,80.31
2023-03-22T08:38:53.253Z,76.01
2023-03-22T08:43:58.606Z,73.36
2023-03-22T08:49:06.095Z,73.73
2023-03-22T08:54:16.621Z,71.38
2023-03-22T08:59:28.408Z,69.77
2023-03-22T09:05:09.266Z,69.06
2023-03-22T09:10:12.276Z,69.11
2023-03-22T09:15:17.078Z,69.28
2023-03-22T09:20:26.420Z,68.28
2023-03-22T09:25:42.427Z,68.41
2023-03-22T09:31:02.947Z,68.06
2023-03-22T09:36:13.210Z,64.90
2023-03-22T09:41:39.794Z,64.29
2023-03-22T09:46:49.375Z,70.31
2023-03-22T09:51:53.538Z,65.76
2023-03-22T09:57:15.657Z,63.51
2023-03-22T10:02:43.586Z,66.16
2023-03-22T10:08:06.930Z,64.37
2023-03-22T10:13:31.635Z,77.54
2023-03-22T10:18:43.483Z,74.23
2023-03-22T10:23:57.910Z,63.91
2023-03-22T10:29:11.809Z,64.22
2023-03-22T10:34:28.160Z,61.33
2023-03-22T10:39:35.766Z,62.53
2023-03-22T10:44:50.689Z,63.22
2023-03-22T10:50:03.592Z,59.56
2023-03-22T10:55:11.049Z,67.22
2023-03-22T11:00:17.534Z,65.02
2023-03-22T11:05:28.299Z,59.75
2023-03-22T11:10:34.989Z,60.34
2023-03-22T11:16:01.400Z,61.38
2023-03-22T11:21:11.431Z,62.06
2023-03-22T11:26:28.583Z,61.80
2023-03-22T11:31:57.472Z,60.21
2023-03-22T11:37:01.282Z,60.27
2023-03-22T11:42:06.701Z,60.53
2023-03-22T11:47:22.173Z,60.34
2023-03-22T11:52:34.253Z,61.15
2023-03-22T11:57:37.924Z,62.23
2023-03-22T12:02:54.946Z,66.31
2023-03-22T12:08:16.095Z,59.69
2023-03-22T12:13:27.736Z,63.44
2023-03-22T12:18:44.531Z,59.74
2023-03-22T12:23:50.008Z,62.52
2023-03-22T12:29:18.273Z,64.32
2023-03-22T12:34:25.894Z,60.42
2023-03-22T12:39:34.946Z,55.53
2023-03-22T12:45:05.129Z,58.09
2023-03-22T12:50:40.538Z,63.42
2023-03-22T12:55:47.639Z,55.49
2023-03-22T13:01:17.797Z,63.48
2023-03-22T13:07:05.076Z,62.37
2023-03-22T13:12:18.939Z,57.69
2023-03-22T13:17:43.048Z,56.55
2023-03-22T13:23:13.976Z,67.67
2023-03-22T13:28:27.286Z,69.91
2023-03-22T13:33:34.874Z,61.15
2023-03-22T13:38:42.980Z,62.31
2023-03-22T13:44:46.031Z,58.33
2023-03-22T13:50:02.227Z,56.86
2023-03-22T13:55:36.803Z,54.91
2023-03-22T14:00:44.771Z,55.17
2023-03-22T14:06:35.393Z,55.98
2023-03-22T14:12:06.842Z,55.48
2023-03-22T14:17:39.350Z,54.82
